Time;durP1;ratioP1;P1;durP2;ratioP2;P2;SDS_P1;SDS_P2;PMS_P1;PMS_P2;Temp;Humidity;BMP_temperature;BMP_pressure;BME280_temperature;BME280_humidity;BME280_pressure;Samples;Min_cycle;Max_cycle;Signal;HPM_P1;HPM_P2
2022/03/23 00:01:55;;;;;;;55.70;39.13;;;;;;;6.18;nan;102875.66;5054380;28;20041;-57
2022/03/23 00:04:21;;;;;;;57.55;38.92;;;;;;;6.50;nan;102954.72;5020231;28;20041;-54
2022/03/23 00:06:46;;;;;;;64.07;38.85;;;;;;;6.56;nan;102953.09;5020222;28;20040;-52
2022/03/23 00:09:14;;;;;;;54.42;38.90;;;;;;;6.60;nan;102960.13;5054320;28;20057;-57
2022/03/23 00:11:40;;;;;;;60.45;39.25;;;;;;;6.59;nan;102970.56;5054309;28;20373;-55
2022/03/23 00:14:06;;;;;;;57.17;38.78;;;;;;;6.15;nan;102880.84;5036423;28;20431;-57
2022/03/23 00:16:34;;;;;;;56.78;39.67;;;;;;;6.50;nan;102959.94;5054202;28;20033;-56
2022/03/23 00:19:00;;;;;;;58.92;38.85;;;;;;;6.35;nan;102946.56;5054177;28;20072;-57
2022/03/23 00:21:25;;;;;;;51.47;36.85;;;;;;;6.44;nan;102959.81;5054371;28;20468;-57
2022/03/23 00:23:50;;;;;;;61.60;38.78;;;;;;;6.41;nan;102965.88;5019854;28;20040;-58
2022/03/23 00:26:16;;;;;;;58.15;35.78;;;;;;;5.94;nan;102883.06;5054148;28;20037;-54
2022/03/23 00:28:41;;;;;;;55.35;37.47;;;;;;;5.91;nan;102880.38;5053992;28;20029;-53
2022/03/23 00:31:08;;;;;;;56.35;39.45;;;;;;;6.04;nan;102900.69;5054173;28;20064;-55
2022/03/23 00:33:34;;;;;;;56.65;38.47;;;;;;;5.96;nan;102876.09;5053877;28;20126;-54
2022/03/23 00:36:00;;;;;;;54.28;38.42;;;;;;;6.41;nan;102968.50;5054064;28;20091;-59
2022/03/23 00:38:26;;;;;;;57.63;39.67;;;;;;;6.04;nan;102903.31;5053994;28;20427;-56
2022/03/23 00:40:51;;;;;;;58.60;38.75;;;;;;;6.25;nan;102944.66;5053788;28;20048;-54
2022/03/23 00:43:16;;;;;;;60.72;39.38;;;;;;;5.80;nan;102877.53;5053518;28;20045;-57
2022/03/23 00:45:42;;;;;;;58.17;38.30;;;;;;;5.96;nan;102899.63;5035981;28;20029;-55
2022/03/23 00:48:07;;;;;;;56.22;39.08;;;;;;;6.17;nan;102929.69;5053768;28;20318;-52
2022/03/23 00:50:34;;;;;;;60.15;39.85;;;;;;;6.30;nan;102959.59;5035961;28;20041;-55
2022/03/23 00:52:59;;;;;;;59.13;39.58;;;;;;;5.87;nan;102874.19;5035761;28;20496;-54
2022/03/23 00:55:25;;;;;;;59.75;39.13;;;;;;;5.95;nan;102885.72;5019338;28;20029;-54
2022/03/23 00:57:50;;;;;;;57.60;38.45;;;;;;;6.31;nan;102963.94;5035620;28;20063;-55
2022/03/23 01:00:17;;;;;;;59.67;38.83;;;;;;;6.15;nan;102927.91;5035768;28;20037;-56
2022/03/23 01:02:44;;;;;;;57.10;38.53;;;;;;;6.26;nan;102942.06;5053512;28;20067;-57
2022/03/23 01:05:10;;;;;;;61.13;40.22;;;;;;;5.92;nan;102885.66;5035068;28;20036;-55
2022/03/23 01:07:36;;;;;;;58.33;40.70;;;;;;;6.27;nan;102945.56;5035683;28;20036;-53
2022/03/23 01:10:03;;;;;;;53.17;39.17;;;;;;;6.20;nan;102952.41;5053295;28;20401;-51
2022/03/23 01:12:28;;;;;;;58.35;37.90;;;;;;;5.71;nan;102872.13;5053009;28;20037;-56
2022/03/23 01:14:53;;;;;;;61.20;39.20;;;;;;;6.04;nan;102966.91;5035439;28;20036;-54
2022/03/23 01:17:19;;;;;;;54.58;38.72;;;;;;;5.87;nan;102936.94;5053046;28;20116;-58
2022/03/23 01:19:44;;;;;;;55.97;39.08;;;;;;;5.54;nan;102882.25;5053118;28;20039;-55
2022/03/23 01:22:09;;;;;;;57.50;38.88;;;;;;;5.80;nan;102949.81;5053121;28;20033;-56
2022/03/23 01:24:35;;;;;;;55.08;38.92;;;;;;;5.36;nan;102873.13;5035043;28;20072;-56
2022/03/23 01:27:02;;;;;;;57.42;37.90;;;;;;;5.30;nan;102873.88;5052753;28;20057;-58
2022/03/23 01:29:28;;;;;;;58.28;38.78;;;;;;;5.65;nan;102948.66;5053213;28;20120;-53
2022/03/23 01:31:53;;;;;;;52.13;36.55;;;;;;;5.59;nan;102940.69;5053025;28;20124;-59
2022/03/23 01:34:18;;;;;;;60.88;38.95;;;;;;;5.48;nan;102942.19;5034693;28;20519;-55
2022/03/23 01:36:44;;;;;;;54.50;36.97;;;;;;;5.47;nan;102936.91;5015237;28;20115;-56
2022/03/23 01:39:09;;;;;;;53.78;37.38;;;;;;;5.23;nan;102899.81;5049109;28;20047;-54
2022/03/23 01:41:36;;;;;;;55.00;37.70;;;;;;;5.50;nan;102935.25;5037820;28;20112;-58
2022/03/23 01:44:01;;;;;;;55.83;38.20;;;;;;;5.46;nan;102938.63;5031440;28;20178;-56
2022/03/23 01:46:26;;;;;;;56.53;37.83;;;;;;;5.16;nan;102875.31;5018208;28;20052;-57
2022/03/23 01:48:52;;;;;;;55.03;37.05;;;;;;;5.55;nan;102937.97;5036933;28;20032;-58
2022/03/23 01:51:17;;;;;;;57.30;38.53;;;;;;;5.50;nan;102943.09;5049115;28;20408;-55
2022/03/23 01:53:42;;;;;;;55.78;38.10;;;;;;;4.31;nan;102768.13;5038881;28;20534;-56
2022/03/23 01:56:10;;;;;;;56.20;36.67;;;;;;;5.45;nan;102930.78;5031291;28;20079;-57
2022/03/23 01:58:36;;;;;;;57.10;37.83;;;;;;;5.20;nan;102898.00;5034475;28;20037;-57
2022/03/23 02:01:01;;;;;;;56.95;36.83;;;;;;;5.00;nan;102862.75;5035889;28;20029;-59
2022/03/23 02:03:27;;;;;;;55.42;37.38;;;;;;;5.06;nan;102875.94;5048006;28;20040;-55
2022/03/23 02:05:52;;;;;;;51.90;37.47;;;;;;;5.30;nan;102928.72;5034556;28;20063;-60
2022/03/23 02:08:18;;;;;;;52.00;36.47;;;;;;;5.03;nan;102878.50;5041127;28;20030;-56
2022/03/23 02:10:44;;;;;;;54.35;37.22;;;;;;;5.25;nan;102924.25;5034203;28;20029;-57
2022/03/23 02:13:10;;;;;;;58.40;37.83;;;;;;;5.18;nan;102931.06;5035688;28;20104;-53
2022/03/23 02:15:36;;;;;;;59.97;38.35;;;;;;;5.13;nan;102926.56;5030925;28;20485;-53
2022/03/23 02:18:01;;;;;;;56.05;39.33;;;;;;;5.16;nan;102929.25;5033407;28;20122;-59
2022/03/23 02:20:27;;;;;;;54.72;38.10;;;;;;;4.73;nan;102864.75;5031185;28;20477;-56
2022/03/23 02:22:52;;;;;;;47.85;35.05;;;;;;;4.67;nan;102851.56;5034015;28;20029;-55
2022/03/23 02:25:26;;;;;;;53.28;36.88;;;;;;;4.73;nan;102868.22;5035465;28;20044;-57
2022/03/23 02:27:52;;;;;;;54.47;37.28;;;;;;;4.62;nan;102858.38;5044590;28;20040;-55
2022/03/23 02:30:18;;;;;;;59.03;39.03;;;;;;;4.96;nan;102918.38;5043298;28;20140;-55
2022/03/23 02:32:44;;;;;;;52.20;37.00;;;;;;;4.60;nan;102855.75;5038094;28;20117;-54
2022/03/23 02:35:11;;;;;;;56.88;39.22;;;;;;;4.49;nan;102838.97;5049950;28;20099;-56
2022/03/23 02:37:38;;;;;;;54.70;36.40;;;;;;;4.92;nan;102916.50;5037203;28;20036;-55
2022/03/23 02:40:04;;;;;;;54.55;35.75;;;;;;;4.95;nan;102920.09;5030586;28;20037;-58
2022/03/23 02:42:29;;;;;;;52.70;36.97;;;;;;;4.80;nan;102913.59;5044310;28;20488;-55
2022/03/23 02:44:54;;;;;;;57.00;39.80;;;;;;;4.85;nan;102930.25;5030733;28;20065;-54
2022/03/23 02:47:20;;;;;;;57.30;38.22;;;;;;;4.38;nan;102851.72;5048267;28;20060;-60
2022/03/23 02:49:45;;;;;;;58.00;38.45;;;;;;;4.36;nan;102850.81;5038649;28;20535;-59
2022/03/23 02:52:10;;;;;;;53.13;36.63;;;;;;;4.49;nan;102885.91;5041798;28;20042;-53
2022/03/23 03:03:44;;;;;;;57.72;37.30;;;;;;;4.18;nan;102854.66;4976815;28;20442;-54
2022/03/23 03:06:09;;;;;;;53.03;36.35;;;;;;;4.35;nan;102895.09;5028758;28;20045;-55
2022/03/23 03:08:48;;;;;;;53.58;36.92;;;;;;;4.13;nan;102858.88;5045212;28;20190;-56
2022/03/23 03:11:14;;;;;;;54.30;36.90;;;;;;;4.12;nan;102872.75;5035067;28;20032;-55
2022/03/23 03:13:41;;;;;;;51.03;35.70;;;;;;;3.85;nan;102832.09;5046005;28;20037;-54
2022/03/23 03:16:06;;;;;;;51.90;36.95;;;;;;;4.32;nan;102923.72;5041561;28;20033;-58
2022/03/23 03:18:33;;;;;;;56.97;38.33;;;;;;;4.35;nan;102939.44;5038716;28;20049;-59
2022/03/23 03:21:00;;;;;;;53.35;36.58;;;;;;;4.08;nan;102910.91;5047945;28;20120;-58
2022/03/23 03:23:27;;;;;;;50.97;35.00;;;;;;;4.14;nan;102924.09;5033794;28;20152;-56
2022/03/23 03:25:52;;;;;;;54.90;36.22;;;;;;;4.04;nan;102914.25;5030064;28;20030;-55
2022/03/23 03:28:17;;;;;;;53.30;36.35;;;;;;;3.98;nan;102904.56;5043400;28;20123;-55
2022/03/23 03:30:43;;;;;;;57.60;37.28;;;;;;;4.16;nan;102937.16;5040811;28;20034;-56
2022/03/23 03:33:08;;;;;;;51.97;36.08;;;;;;;4.17;nan;102936.31;5053002;28;20091;-56
2022/03/23 03:35:34;;;;;;;51.17;35.67;;;;;;;4.08;nan;102917.84;5050108;28;20037;-57
2022/03/23 03:37:59;;;;;;;58.08;36.17;;;;;;;3.74;nan;102856.97;5043422;28;20025;-57
2022/03/23 03:40:25;;;;;;;53.85;36.45;;;;;;;3.74;nan;102859.56;5042931;28;20060;-52
2022/03/23 03:42:50;;;;;;;55.00;37.45;;;;;;;3.83;nan;102869.38;5037224;28;20112;-55
2022/03/23 03:45:15;;;;;;;52.67;35.38;;;;;;;4.19;nan;102945.06;5038419;28;20493;-57
2022/03/23 03:47:41;;;;;;;56.00;35.65;;;;;;;4.17;nan;102937.22;5049147;28;20457;-54
2022/03/23 03:50:06;;;;;;;53.20;37.08;;;;;;;4.10;nan;102935.28;5044486;28;20100;-54
2022/03/23 03:52:32;;;;;;;54.55;35.97;;;;;;;4.14;nan;102941.47;5041765;28;20140;-57
2022/03/23 03:54:57;;;;;;;57.65;37.17;;;;;;;3.77;nan;102882.22;5051333;28;20091;-55
2022/03/23 03:57:22;;;;;;;53.28;35.90;;;;;;;4.08;nan;102950.00;5017337;28;20034;-54
2022/03/23 03:59:48;;;;;;;53.15;34.25;;;;;;;4.03;nan;102938.53;5041847;28;20078;-56
2022/03/23 04:02:14;;;;;;;57.75;36.00;;;;;;;3.62;nan;102882.66;5033348;28;20053;-60
2022/03/23 04:04:39;;;;;;;60.90;36.72;;;;;;;3.49;nan;102859.75;5048647;28;20036;-56
2022/03/23 04:07:05;;;;;;;52.72;35.42;;;;;;;3.86;nan;102926.75;5037932;28;20067;-55
2022/03/23 04:09:30;;;;;;;49.83;33.60;;;;;;;3.88;nan;102927.72;5033342;28;20444;-56
2022/03/23 04:11:55;;;;;;;52.80;35.80;;;;;;;3.63;nan;102874.03;5042289;28;20500;-57
2022/03/23 04:14:21;;;;;;;51.38;36.53;;;;;;;3.96;nan;102923.59;5042836;28;20034;-56
2022/03/23 04:16:46;;;;;;;50.58;34.88;;;;;;;4.04;nan;102944.63;5036582;28;20051;-54
2022/03/23 04:19:11;;;;;;;53.55;36.17;;;;;;;4.07;nan;102948.22;5037926;28;20029;-56
2022/03/23 04:21:37;;;;;;;57.38;36.38;;;;;;;4.05;nan;102949.91;5048572;28;20032;-55
2022/03/23 04:24:02;;;;;;;52.90;34.83;;;;;;;4.04;nan;102955.06;5042921;28;20041;-55
2022/03/23 04:26:27;;;;;;;56.33;35.13;;;;;;;4.00;nan;102948.88;5041808;28;20040;-55
2022/03/23 04:28:53;;;;;;;53.00;35.60;;;;;;;3.92;nan;102943.47;5050049;28;20029;-55
2022/03/23 04:31:18;;;;;;;53.47;35.95;;;;;;;3.45;nan;102870.91;5037555;28;20025;-57
2022/03/23 04:33:44;;;;;;;54.60;36.00;;;;;;;3.34;nan;102860.19;5035983;28;20128;-53
2022/03/23 04:36:11;;;;;;;53.17;36.70;;;;;;;3.73;nan;102946.41;5044026;28;20052;-56
2022/03/23 04:38:36;;;;;;;58.78;37.47;;;;;;;3.76;nan;102959.50;5047510;28;20147;-54
2022/03/23 04:41:03;;;;;;;46.45;34.70;;;;;;;3.71;nan;102962.78;5032492;28;20069;-56
2022/03/23 04:43:28;;;;;;;51.72;34.97;;;;;;;3.14;nan;102863.91;5032856;28;20555;-57
2022/03/23 04:45:54;;;;;;;53.47;35.80;;;;;;;3.48;nan;102936.06;5035972;28;20065;-56
2022/03/23 04:48:19;;;;;;;52.03;34.90;;;;;;;3.10;nan;102872.47;5042277;28;20052;-55
2022/03/23 04:50:46;;;;;;;60.30;37.22;;;;;;;3.46;nan;102961.19;5019127;28;20083;-53
2022/03/23 04:53:12;;;;;;;56.50;35.53;;;;;;;3.32;nan;102933.88;5036895;28;20148;-54
2022/03/23 04:55:38;;;;;;;52.00;34.58;;;;;;;3.47;nan;102960.38;5047979;28;20039;-56
2022/03/23 04:58:03;;;;;;;55.10;36.97;;;;;;;3.42;nan;102962.81;5042705;28;20063;-56
2022/03/23 05:00:28;;;;;;;57.33;34.20;;;;;;;3.45;nan;102956.81;5041166;28;20156;-55
2022/03/23 05:02:54;;;;;;;55.58;36.38;;;;;;;3.03;nan;102890.44;5049582;28;20025;-54
2022/03/23 05:05:19;;;;;;;60.47;36.65;;;;;;;2.97;nan;102890.25;5036967;28;20400;-57
2022/03/23 05:07:45;;;;;;;56.65;36.25;;;;;;;3.00;nan;102908.56;5046945;28;20117;-55
2022/03/23 05:10:13;;;;;;;55.38;35.70;;;;;;;3.36;nan;102972.16;5035840;28;20166;-52
2022/03/23 05:12:41;;;;;;;56.00;36.35;;;;;;;2.94;nan;102900.56;5032378;28;20112;-59
2022/03/23 05:15:08;;;;;;;55.03;36.40;;;;;;;3.00;nan;102924.19;5049712;28;20071;-53
2022/03/23 05:17:35;;;;;;;50.83;33.85;;;;;;;2.97;nan;102919.75;5035827;28;20032;-55
2022/03/23 05:20:01;;;;;;;52.22;35.78;;;;;;;3.32;nan;102981.59;5032302;28;20029;-50
2022/03/23 05:22:27;;;;;;;57.47;36.17;;;;;;;3.34;nan;102961.69;5045442;28;20025;-53
2022/03/23 05:24:52;;;;;;;59.55;38.13;;;;;;;3.48;nan;102976.84;5031904;28;20056;-53
2022/03/23 05:27:18;;;;;;;57.00;37.45;;;;;;;3.17;nan;102917.78;5032424;28;20465;-55
2022/03/23 05:29:43;;;;;;;52.60;35.20;;;;;;;3.35;nan;102965.19;5034959;28;20029;-55
2022/03/23 05:32:16;;;;;;;52.45;35.13;;;;;;;3.00;nan;102908.56;5043165;28;20025;-52
2022/03/23 05:34:44;;;;;;;52.00;36.25;;;;;;;3.29;nan;102980.63;5049869;28;20107;-55
2022/03/23 05:37:11;;;;;;;54.80;34.85;;;;;;;2.81;nan;102910.56;5035995;28;20034;-51
2022/03/23 05:39:36;;;;;;;59.85;37.15;;;;;;;2.76;nan;102909.56;5031644;28;20044;-52
2022/03/23 05:42:03;;;;;;;49.92;32.60;;;;;;;3.13;nan;102980.97;5041872;28;20029;-54
2022/03/23 05:44:28;;;;;;;51.67;34.92;;;;;;;3.10;nan;102978.25;5040244;28;20029;-56
2022/03/23 05:46:54;;;;;;;53.90;36.70;;;;;;;3.09;nan;102981.72;5048752;28;20060;-53
2022/03/23 05:49:19;;;;;;;56.63;37.83;;;;;;;3.04;nan;102976.34;5036131;28;20029;-55
2022/03/23 05:51:44;;;;;;;51.83;34.63;;;;;;;3.00;nan;102979.69;5046206;28;20503;-53
2022/03/23 05:54:10;;;;;;;54.67;35.95;;;;;;;2.63;nan;102909.09;5042744;28;20025;-56
2022/03/23 05:56:35;;;;;;;53.70;34.75;;;;;;;2.64;nan;102906.56;5039082;28;20465;-50
2022/03/23 05:59:00;;;;;;;57.03;36.67;;;;;;;2.76;nan;102925.16;5048919;28;20045;-58
2022/03/23 06:01:26;;;;;;;59.63;37.63;;;;;;;2.86;nan;102920.25;5018041;28;20098;-54
2022/03/23 06:03:51;;;;;;;60.25;37.60;;;;;;;3.28;nan;102979.72;5044782;28;20041;-56
2022/03/23 06:06:17;;;;;;;54.97;35.17;;;;;;;2.99;nan;102914.59;5043191;28;20037;-54
2022/03/23 06:08:42;;;;;;;57.17;37.22;;;;;;;3.28;nan;102950.22;5037756;28;20025;-52
2022/03/23 06:11:08;;;;;;;66.00;40.75;;;;;;;3.57;nan;102980.63;5048688;28;20025;-55
2022/03/23 06:13:33;;;;;;;65.85;38.53;;;;;;;3.68;nan;102992.22;5037114;28;20029;-56
2022/03/23 06:15:58;;;;;;;61.85;38.25;;;;;;;3.45;nan;102922.97;5043694;28;20022;-55
2022/03/23 06:18:24;;;;;;;62.92;37.72;;;;;;;3.47;nan;102913.50;5044083;28;20033;-51
2022/03/23 06:20:49;;;;;;;61.28;39.33;;;;;;;3.94;nan;102980.00;5036535;28;20036;-57
2022/03/23 06:23:14;;;;;;;60.88;36.47;;;;;;;3.98;nan;102981.81;5031549;28;20087;-54
2022/03/23 06:25:40;;;;;;;55.50;36.35;;;;;;;4.02;nan;102982.81;5037576;28;20447;-53
2022/03/23 06:28:05;;;;;;;52.33;35.75;;;;;;;4.04;nan;102988.94;5042618;28;20033;-53
2022/03/23 06:30:31;;;;;;;58.92;36.03;;;;;;;4.02;nan;102980.19;5034240;28;20381;-59
2022/03/23 06:32:56;;;;;;;56.95;35.80;;;;;;;4.11;nan;102989.16;5037980;28;20041;-56
2022/03/23 06:35:22;;;;;;;52.95;36.00;;;;;;;4.21;nan;102990.28;5048209;28;20587;-51
2022/03/23 06:37:47;;;;;;;51.60;36.20;;;;;;;4.30;nan;102985.31;5039128;28;20112;-56
2022/03/23 06:40:12;;;;;;;57.58;37.65;;;;;;;4.55;nan;102996.44;5030546;28;20034;-58
2022/03/23 06:42:38;;;;;;;53.58;36.58;;;;;;;4.88;nan;102983.41;5045868;28;20029;-56
2022/03/23 06:45:04;;;;;;;49.25;33.97;;;;;;;5.24;nan;102985.13;5035108;28;20036;-53
2022/03/23 06:47:32;;;;;;;51.03;33.83;;;;;;;5.51;nan;102991.88;5047557;28;20103;-58
2022/03/23 06:49:57;;;;;;;44.75;33.55;;;;;;;5.29;nan;102907.78;5033826;28;20423;-55
2022/03/23 06:52:22;;;;;;;41.53;30.77;;;;;;;5.92;nan;102992.81;5030663;28;20037;-56
2022/03/23 06:54:49;;;;;;;45.75;31.92;;;;;;;6.15;nan;102998.50;5047034;28;20036;-56
2022/03/23 06:57:14;;;;;;;45.40;31.40;;;;;;;5.96;nan;102934.50;5035009;28;20036;-52
2022/03/23 06:59:40;;;;;;;49.05;33.92;;;;;;;6.37;nan;102992.81;5046063;28;20029;-48
2022/03/23 07:02:11;;;;;;;43.83;30.35;;;;;;;6.63;nan;103014.25;5033068;28;20037;-53
2022/03/23 07:04:37;;;;;;;41.88;30.40;;;;;;;6.83;nan;103006.75;5039310;28;20060;-56
2022/03/23 07:07:03;;;;;;;41.55;29.58;;;;;;;6.98;nan;102967.72;5051728;28;20468;-52
2022/03/23 07:09:32;;;;;;;39.03;30.02;;;;;;;7.64;nan;103018.53;5039960;28;20456;-57
2022/03/23 07:12:02;;;;;;;40.97;29.90;;;;;;;7.93;nan;103001.47;5047275;28;20032;-55
2022/03/23 07:14:29;;;;;;;40.25;28.40;;;;;;;8.48;nan;103016.13;5030294;28;20111;-53
2022/03/23 07:16:54;;;;;;;40.45;27.58;;;;;;;8.98;nan;103047.28;5039360;28;20029;-57
2022/03/23 07:19:20;;;;;;;35.67;26.67;;;;;;;9.40;nan;103049.34;5051857;28;20539;-58
2022/03/23 07:21:46;;;;;;;34.35;25.67;;;;;;;9.64;nan;103025.88;5041928;28;20142;-55
2022/03/23 07:24:11;;;;;;;32.10;24.77;;;;;;;10.37;nan;103066.63;5045164;28;20033;-56
2022/03/23 07:26:37;;;;;;;34.22;25.23;;;;;;;10.84;nan;103079.91;5047935;28;20384;-59
2022/03/23 07:29:03;;;;;;;32.03;25.70;;;;;;;11.28;nan;103062.41;5036808;28;20048;-58
2022/03/23 07:31:28;;;;;;;31.77;24.77;;;;;;;11.75;nan;103080.84;5039511;28;20116;-54
2022/03/23 07:33:54;;;;;;;33.15;23.33;;;;;;;11.99;nan;103027.13;5054122;28;20128;-52
2022/03/23 07:36:19;;;;;;;38.78;24.45;;;;;;;12.80;nan;103085.72;5043831;28;20143;-54
2022/03/23 07:38:45;;;;;;;33.80;24.65;;;;;;;13.02;nan;103104.97;5049655;28;20056;-56
2022/03/23 07:41:10;;;;;;;30.30;23.75;;;;;;;13.13;nan;103106.69;5038531;28;20033;-54
2022/03/23 07:43:35;;;;;;;30.10;23.45;;;;;;;13.19;nan;103093.41;5049744;28;20404;-53
2022/03/23 07:46:01;;;;;;;28.10;23.33;;;;;;;13.81;nan;103107.84;5043670;28;20174;-57
2022/03/23 07:48:26;;;;;;;32.72;25.55;;;;;;;;;;5041517;28;20060;-56
2022/03/23 07:50:51;;;;;;;30.13;23.43;;;;;;;14.51;nan;103073.50;5050317;28;20071;-53
2022/03/23 07:53:18;;;;;;;28.63;23.90;;;;;;;14.41;nan;103083.38;5037870;28;20130;-54
2022/03/23 07:55:43;;;;;;;26.90;23.60;;;;;;;14.43;nan;103096.59;5032672;28;20037;-56
2022/03/23 07:58:09;;;;;;;27.50;22.45;;;;;;;14.84;nan;103136.69;5044180;28;20041;-58
2022/03/23 08:00:34;;;;;;;26.95;21.98;;;;;;;14.81;nan;103066.91;5041439;28;20044;-56
2022/03/23 08:17:25;;;;;;;27.20;24.23;;;;;;;15.39;100.00;103136.75;5108817;27;1260078;-53
2022/03/23 08:20:32;;;;;;;30.92;22.60;;;;;;;16.05;100.00;103134.72;5129836;28;20044;-48
2022/03/23 08:22:36;;;;;;;30.55;22.33;;;;;;;16.21;100.00;103051.16;5130129;28;20047;-54
2022/03/23 08:25:02;;;;;;;33.35;24.70;;;;;;;17.01;100.00;103135.44;5130177;27;20080;-52
2022/03/23 08:27:27;;;;;;;30.58;22.30;;;;;;;;;;5128832;28;20031;-52
2022/03/23 08:29:53;;;;;;;28.67;23.40;;;;;;;;;;5130049;28;20032;-52
2022/03/23 08:32:18;;;;;;;27.10;23.87;;;;;;;17.05;nan;103049.28;5130282;28;20038;-50
2022/03/23 08:34:43;;;;;;;26.60;22.67;;;;;;;17.65;nan;103090.38;5128751;28;20337;-55
2022/03/23 08:37:09;;;;;;;29.30;24.13;;;;;;;18.04;nan;103127.53;5130267;27;20035;-53
2022/03/23 08:39:34;;;;;;;31.77;24.33;;;;;;;18.09;nan;103085.63;5130114;28;20474;-52
2022/03/23 08:42:00;;;;;;;30.98;23.15;;;;;;;18.09;nan;103064.31;5129975;27;20031;-57
2022/03/23 08:44:25;;;;;;;26.15;22.23;;;;;;;19.02;nan;103129.97;5129607;28;20491;-57
2022/03/23 08:46:50;;;;;;;27.83;23.63;;;;;;;19.28;nan;103127.34;5123914;28;20043;-55
2022/03/23 08:49:15;;;;;;;32.17;24.23;;;;;;;19.02;nan;103066.78;5129910;28;20463;-58
2022/03/23 08:51:41;;;;;;;28.33;23.02;;;;;;;19.56;nan;103122.84;5129813;28;20031;-58
2022/03/23 08:54:06;;;;;;;29.27;23.40;;;;;;;19.75;nan;103127.56;5129695;28;20042;-55
2022/03/23 08:56:32;;;;;;;29.20;22.90;;;;;;;19.22;nan;103071.47;5129629;27;20035;-56
2022/03/23 08:58:57;;;;;;;25.42;21.45;;;;;;;19.45;nan;103062.69;5129633;27;20088;-57
2022/03/23 09:01:22;;;;;;;25.30;21.77;;;;;;;20.87;nan;103134.13;5129793;28;20034;-59
2022/03/23 09:03:49;;;;;;;27.77;22.23;;;;;;;20.67;nan;103133.09;5129805;27;20041;-59
2022/03/23 09:06:15;;;;;;;28.30;21.88;;;;;;;20.48;nan;103134.72;5129435;27;20067;-58
2022/03/23 09:08:40;;;;;;;26.08;22.60;;;;;;;20.72;nan;103138.28;5129668;27;20467;-56
2022/03/23 09:11:05;;;;;;;24.92;22.15;;;;;;;20.73;nan;103094.50;5129422;27;20043;-55
2022/03/23 09:13:31;;;;;;;27.95;22.40;;;;;;;;;;5128115;28;20118;-55
2022/03/23 09:15:56;;;;;;;29.75;23.95;;;;;;;;;;5128884;27;20143;-58
2022/03/23 09:18:26;;;;;;;28.87;23.23;;;;;;;;;;5114595;28;20038;-55
2022/03/23 09:20:51;;;;;;;25.88;23.08;;;;;;;;;;5113709;28;20448;-56
2022/03/23 09:23:16;;;;;;;26.45;23.42;;;;;;;;;;5095942;28;20070;-52
2022/03/23 09:25:41;;;;;;;24.80;22.10;;;;;;;;;;5094932;28;20055;-53
2022/03/23 09:28:07;;;;;;;24.13;21.53;;;;;;;;;;5094877;28;20126;-54
2022/03/23 09:30:32;;;;;;;27.45;21.90;;;;;;;;;;5094927;28;20356;-58
2022/03/23 09:32:57;;;;;;;26.23;22.13;;;;;;;;;;5093765;28;20084;-57
2022/03/23 09:35:22;;;;;;;29.20;22.85;;;;;;;;;;5094874;28;20312;-58
2022/03/23 09:37:48;;;;;;;25.90;22.63;;;;;;;;;;5094982;28;20036;-56
2022/03/23 09:40:15;;;;;;;25.40;21.17;;;;;;;;;;5094645;28;20278;-56
2022/03/23 09:42:41;;;;;;;30.25;21.75;;;;;;;;;;5094484;28;20039;-51
2022/03/23 09:45:06;;;;;;;25.48;22.73;;;;;;;;;;5094875;28;20042;-55
2022/03/23 09:47:32;;;;;;;26.40;21.42;;;;;;;;;;5094656;28;20118;-53
2022/03/23 09:49:57;;;;;;;24.88;21.95;;;;;;;;;;5094558;28;20035;-58
2022/03/23 09:52:22;;;;;;;28.52;22.50;;;;;;;;;;5093188;28;20024;-51
2022/03/23 09:54:48;;;;;;;28.70;21.85;;;;;;;;;;5094516;28;20028;-53
2022/03/23 09:57:13;;;;;;;26.98;21.85;;;;;;;;;;5096704;28;20043;-53
2022/03/23 09:59:39;;;;;;;28.15;22.88;;;;;;;;;;5112790;28;20430;-55
2022/03/23 10:02:04;;;;;;;29.38;22.65;;;;;;;;;;5114606;28;20036;-58
2022/03/23 10:04:48;;;;;;;27.23;23.08;;;;;;;;;;5114680;28;20045;-57
2022/03/23 10:07:17;;;;;;;26.55;22.30;;;;;;;;;;5114566;28;20032;-56
2022/03/23 10:09:54;;;;;;;25.77;22.58;;;;;;;;;;5114590;28;20067;-57
2022/03/23 10:12:38;;;;;;;31.17;23.70;;;;;;;;;;5114677;28;20201;-55
2022/03/23 10:15:09;;;;;;;29.05;22.50;;;;;;;23.00;nan;103129.28;5114409;28;20043;-55
2022/03/23 10:17:58;;;;;;;25.25;22.20;;;;;;;23.61;nan;103137.88;5114426;28;20499;-58
2022/03/23 10:20:24;;;;;;;29.17;23.23;;;;;;;23.68;nan;103074.75;5114288;28;20030;-58
2022/03/23 10:22:52;;;;;;;27.83;23.52;;;;;;;23.92;nan;103138.03;5114585;28;20036;-55
2022/03/23 10:25:20;;;;;;;30.05;23.42;;;;;;;;;;5113208;28;20043;-54
2022/03/23 10:27:46;;;;;;;28.73;22.40;;;;;;;;;;5114134;28;20480;-55
2022/03/23 10:30:15;;;;;;;26.10;22.38;;;;;;;25.04;nan;103124.66;5113183;28;20040;-56
2022/03/23 10:32:43;;;;;;;25.67;22.90;;;;;;;25.12;nan;103097.31;5114016;28;20050;-58
2022/03/23 10:35:13;;;;;;;26.90;24.05;;;;;;;;;;5114252;28;20027;-54
2022/03/23 10:37:38;;;;;;;27.25;23.45;;;;;;;;;;5114081;28;20174;-52
2022/03/23 10:40:07;;;;;;;30.17;24.27;;;;;;;;;;5114089;28;20067;-60
2022/03/23 10:42:33;;;;;;;25.65;22.73;;;;;;;;;;5113891;28;20036;-57
2022/03/23 10:45:16;;;;;;;28.40;23.60;;;;;;;25.40;nan;103112.72;5113910;28;20387;-56
2022/03/23 10:47:41;;;;;;;28.48;24.58;;;;;;;;;;5113977;28;20085;-55
2022/03/23 10:50:08;;;;;;;28.30;24.67;;;;;;;;;;5113827;28;20031;-55
2022/03/23 10:52:33;;;;;;;28.13;25.13;;;;;;;;;;5113745;28;20081;-55
2022/03/23 10:55:00;;;;;;;30.13;26.15;;;;;;;;;;5113569;28;20472;-52
2022/03/23 10:57:43;;;;;;;37.90;24.67;;;;;;;;;;5113614;28;20035;-54
2022/03/23 11:00:13;;;;;;;27.38;23.05;;;;;;;;;;5113596;28;20059;-55
2022/03/23 11:02:46;;;;;;;28.48;24.00;;;;;;;;;;5113381;28;20035;-56
2022/03/23 11:05:13;;;;;;;32.47;24.73;;;;;;;;;;5113065;28;20054;-57
2022/03/23 11:07:40;;;;;;;27.02;23.67;;;;;;;;;;5113510;28;20546;-58
2022/03/23 11:15:47;;;;;;;31.40;23.27;;;;;;;;;;5112470;28;20477;-57
2022/03/23 11:18:17;;;;;;;27.73;22.58;;;;;;;28.75;nan;103127.38;5112269;28;20035;-59
2022/03/23 11:20:51;;;;;;;25.80;23.23;;;;;;;28.67;nan;103077.44;5112003;28;20039;-57
2022/03/23 11:23:20;;;;;;;32.00;24.40;;;;;;;28.28;nan;103108.28;5113283;28;20036;-57
2022/03/23 11:25:47;;;;;;;28.80;22.83;;;;;;;28.43;nan;103121.56;5113106;28;20031;-57
2022/03/23 11:28:14;;;;;;;29.23;24.90;;;;;;;27.83;nan;103087.97;5095017;28;20479;-57
2022/03/23 11:30:41;;;;;;;29.25;24.58;;;;;;;28.65;nan;103120.94;5113075;28;20028;-53
2022/03/23 11:33:08;;;;;;;29.77;26.08;;;;;;;28.42;nan;103084.66;5112886;28;20096;-58
2022/03/23 11:35:34;;;;;;;27.75;24.75;;;;;;;28.39;nan;103114.66;5111832;28;20031;-56
2022/03/23 11:38:00;;;;;;;28.40;25.35;;;;;;;28.32;nan;103107.06;5113011;28;20364;-58
2022/03/23 11:40:25;;;;;;;29.38;26.08;;;;;;;28.44;nan;103108.91;5111503;28;20042;-58
2022/03/23 11:42:52;;;;;;;32.00;26.05;;;;;;;28.54;nan;103054.91;5112916;28;20039;-58
2022/03/23 11:45:17;;;;;;;27.92;24.77;;;;;;;29.26;nan;103111.84;5112882;28;20036;-59
2022/03/23 11:47:51;;;;;;;28.98;25.83;;;;;;;29.20;nan;103104.13;5111628;28;20360;-53
2022/03/23 11:50:33;;;;;;;27.55;24.67;;;;;;;29.23;nan;103067.81;5112079;28;20387;-55
2022/03/23 11:53:02;;;;;;;32.92;26.17;;;;;;;28.77;nan;103108.31;5111749;28;20036;-58
2022/03/23 11:55:37;;;;;;;28.88;25.25;;;;;;;29.07;nan;103102.47;5111547;28;20108;-58
2022/03/23 11:58:18;;;;;;;29.77;26.45;;;;;;;28.81;nan;103099.84;5111464;28;20036;-56
2022/03/23 12:00:51;;;;;;;29.40;26.02;;;;;;;28.86;nan;103102.22;5111745;28;20019;-57
2022/03/23 12:03:49;;;;;;;28.65;24.00;;;;;;;29.28;nan;103095.44;5112705;28;20036;-58
2022/03/23 12:06:16;;;;;;;27.92;24.77;;;;;;;;;;5104997;28;20048;-59
2022/03/23 12:08:51;;;;;;;28.05;23.98;;;;;;;29.79;nan;103091.44;5112448;28;20396;-58
2022/03/23 12:11:38;;;;;;;26.75;23.75;;;;;;;30.03;nan;103078.66;5111459;28;20131;-56
2022/03/23 12:14:05;;;;;;;26.17;23.45;;;;;;;30.00;nan;103091.63;5112474;28;20502;-57
2022/03/23 12:16:45;;;;;;;29.23;23.30;;;;;;;29.78;nan;103084.25;5112505;28;20457;-58
2022/03/23 12:19:11;;;;;;;34.55;23.77;;;;;;;29.62;nan;103051.16;5112832;28;20066;-59